Schneifelwetter: Wetterstation Hallschlag, 537 m . NN
Wetterdaten: Sonntag, 19.12.2010
Datum Zeit Temp. A. Feuchte A. Luftdruck Regen Wind Richtung Richtung Sonnenschein Helligkeit T Regen Taupunkt Windchill
19.12.2010 00:02 -5,3 C 96 % 992 hPa 0,0 l/m 16,0 km/h (3 Bft) S22.5 170 0 min 0 lux 0,00 min -5,8 C -14,1 C
19.12.2010 00:17 -5,3 C 96 % 992 hPa 0,0 l/m 16,0 km/h (3 Bft) S45 170 0 min 0 lux 0,00 min -5,8 C -14,1 C
19.12.2010 00:32 -5,3 C 97 % 992 hPa 0,0 l/m 14,6 km/h (3 Bft) S-SO22.5 160 0 min 0 lux 0,00 min -5,7 C -13,1 C
19.12.2010 00:47 -5,1 C 97 % 992 hPa 0,0 l/m 17,6 km/h (3 Bft) S-SO22.5 160 0 min 0 lux 0,00 min -5,5 C -14,8 C
19.12.2010 01:02 -5,1 C 96 % 992 hPa 0,0 l/m 10,8 km/h (2 Bft) S-SO22.5 165 0 min 0 lux 0,00 min -5,6 C -9,8 C
19.12.2010 01:17 -5,3 C 96 % 992 hPa 0,0 l/m 14,3 km/h (3 Bft) S-SO22.5 160 0 min 0 lux 0,00 min -5,8 C -12,9 C
19.12.2010 01:32 -5,3 C 96 % 992 hPa 0,0 l/m 15,8 km/h (3 Bft) S-SW45 195 0 min 0 lux 0,00 min -5,8 C -14,0 C
19.12.2010 01:47 -5,1 C 96 % 992 hPa 0,0 l/m 14,7 km/h (3 Bft) S22.5 180 0 min 0 lux 0,00 min -5,6 C -12,9 C
19.12.2010 02:02 -5,0 C 96 % 992 hPa 1,2 l/m 20,5 km/h (4 Bft) S45 190 0 min 0 lux 15,00 min -5,5 C -16,4 C
19.12.2010 02:16 -4,9 C 96 % 992 hPa 0,0 l/m 18,6 km/h (3 Bft) S-SW45 195 0 min 0 lux 0,00 min -5,4 C -15,2 C
19.12.2010 02:31 -4,8 C 96 % 992 hPa 0,0 l/m 18,7 km/h (3 Bft) S-SW22.5 205 0 min 0 lux 0,00 min -5,3 C -15,1 C
19.12.2010 02:46 -4,7 C 96 % 992 hPa 0,0 l/m 18,8 km/h (3 Bft) S-SW45 205 0 min 0 lux 0,00 min -5,2 C -15,0 C
19.12.2010 03:01 -4,7 C 96 % 992 hPa 0,0 l/m 19,3 km/h (3 Bft) SW45 230 0 min 0 lux 0,00 min -5,2 C -15,3 C
19.12.2010 03:16 -4,7 C 97 % 992 hPa 0,0 l/m 22,8 km/h (4 Bft) SW45 225 0 min 0 lux 0,00 min -5,1 C -17,1 C
19.12.2010 03:31 -4,6 C 97 % 992 hPa 0,0 l/m 22,9 km/h (4 Bft) SW45 220 0 min 0 lux 0,00 min -5,0 C -17,0 C
19.12.2010 03:46 -4,6 C 97 % 992 hPa 0,0 l/m 26,1 km/h (4 Bft) W-SW45 245 0 min 0 lux 0,00 min -5,0 C -18,4 C
19.12.2010 04:01 -4,6 C 97 % 992 hPa 0,0 l/m 23,7 km/h (4 Bft) W-SW45 240 0 min 0 lux 0,00 min -5,0 C -17,4 C
19.12.2010 04:16 -4,6 C 97 % 993 hPa 0,0 l/m 21,8 km/h (4 Bft) SW45 230 0 min 0 lux 0,00 min -5,0 C -16,5 C
19.12.2010 04:31 -4,5 C 97 % 993 hPa 0,0 l/m 21,7 km/h (4 Bft) W-SW22.5 250 0 min 0 lux 0,00 min -4,9 C -16,3 C
19.12.2010 04:46 -4,4 C 97 % 993 hPa 0,0 l/m 18,0 km/h (3 Bft) W-SW22.5 250 0 min 0 lux 0,00 min -4,8 C -14,2 C
19.12.2010 05:01 -4,5 C 97 % 993 hPa 0,0 l/m 22,0 km/h (4 Bft) SW45 225 0 min 0 lux 0,00 min -4,9 C -16,5 C
19.12.2010 05:16 -4,6 C 97 % 993 hPa 0,0 l/m 19,0 km/h (3 Bft) SW45 230 0 min 0 lux 0,00 min -5,0 C -15,0 C
19.12.2010 05:31 -4,9 C 96 % 993 hPa 0,0 l/m 14,6 km/h (3 Bft) W-SW22.5 245 0 min 0 lux 0,00 min -5,4 C -12,6 C
19.12.2010 05:46 -5,0 C 97 % 994 hPa 0,0 l/m 18,0 km/h (3 Bft) W-SW22.5 245 0 min 0 lux 0,00 min -5,4 C -15,0 C
19.12.2010 06:01 -4,8 C 97 % 993 hPa 0,0 l/m 18,6 km/h (3 Bft) W-SW22.5 250 0 min 0 lux 0,00 min -5,2 C -15,1 C
19.12.2010 06:16 -4,7 C 97 % 994 hPa 0,0 l/m 22,1 km/h (4 Bft) W-SW45 250 0 min 0 lux 0,00 min -5,1 C -16,8 C
19.12.2010 06:31 -4,6 C 97 % 994 hPa 0,0 l/m 26,8 km/h (4 Bft) W-SW45 250 0 min 0 lux 0,00 min -5,0 C -18,7 C
19.12.2010 06:46 -4,6 C 97 % 994 hPa 0,0 l/m 29,0 km/h (5 Bft) W-SW45 240 0 min 0 lux 0,00 min -5,0 C -19,5 C
19.12.2010 07:01 -4,6 C 96 % 994 hPa 0,0 l/m 23,2 km/h (4 Bft) SW45 230 0 min 0 lux 0,00 min -5,1 C -17,2 C
19.12.2010 07:16 -4,5 C 96 % 994 hPa 0,0 l/m 23,2 km/h (4 Bft) SW45 225 0 min 0 lux 0,00 min -5,0 C -17,0 C
19.12.2010 07:31 -4,5 C 96 % 994 hPa 0,0 l/m 23,7 km/h (4 Bft) W-SW22.5 250 0 min 0 lux 0,00 min -5,0 C -17,2 C
19.12.2010 07:46 -4,5 C 96 % 994 hPa 0,0 l/m 24,9 km/h (4 Bft) SW22.5 230 0 min 0 lux 0,00 min -5,0 C -17,8 C
19.12.2010 08:01 -4,6 C 96 % 994 hPa 0,0 l/m 22,1 km/h (4 Bft) W-SW22.5 255 0 min 0 lux 0,00 min -5,1 C -16,6 C
19.12.2010 08:16 -4,7 C 96 % 994 hPa 0,0 l/m 19,5 km/h (3 Bft) W-SW22.5 255 0 min 87 lux 0,00 min -5,2 C -15,4 C
19.12.2010 08:31 -5,0 C 96 % 994 hPa 0,0 l/m 13,9 km/h (3 Bft) W-SW22.5 250 0 min 385 lux 0,00 min -5,5 C -12,3 C
19.12.2010 08:46 -5,3 C 96 % 994 hPa 0,0 l/m 15,5 km/h (3 Bft) SW22.5 225 0 min 860 lux 0,00 min -5,8 C -13,7 C
19.12.2010 09:01 -5,3 C 96 % 994 hPa 0,0 l/m 17,3 km/h (3 Bft) SW45 220 0 min 2,18 klux 0,00 min -5,8 C -14,9 C
19.12.2010 09:16 -5,3 C 96 % 994 hPa 0,0 l/m 20,3 km/h (4 Bft) SW22.5 230 0 min 2,74 klux 0,00 min -5,8 C -16,6 C
19.12.2010 09:31 -4,8 C 96 % 994 hPa 0,0 l/m 22,3 km/h (4 Bft) SW45 215 0 min 6,56 klux 0,00 min -5,3 C -17,0 C
19.12.2010 09:46 -4,6 C 96 % 994 hPa 0,0 l/m 23,0 km/h (4 Bft) SW45 215 0 min 4,28 klux 0,00 min -5,1 C -17,1 C
19.12.2010 10:01 -4,5 C 96 % 994 hPa 0,0 l/m 24,8 km/h (4 Bft) S-SW22.5 210 0 min 5,23 klux 0,00 min -5,0 C -17,7 C
19.12.2010 10:17 -4,3 C 96 % 994 hPa 0,0 l/m 11,1 km/h (2 Bft) S-SW45 205 0 min 9,1 klux 0,00 min -4,8 C -9,2 C
19.12.2010 10:32 -4,1 C 95 % 994 hPa 0,0 l/m 9,7 km/h (2 Bft) S-SO 160 0 min 9,6 klux 0,00 min -4,8 C -7,7 C
19.12.2010 10:47 -4,0 C 95 % 995 hPa 0,0 l/m 9,3 km/h (2 Bft) S22.5 180 0 min 7,08 klux 0,00 min -4,7 C -7,2 C
19.12.2010 11:02 -3,9 C 95 % 995 hPa 0,0 l/m 17,5 km/h (3 Bft) SW45 225 0 min 7,71 klux 0,00 min -4,6 C -13,3 C
19.12.2010 11:17 -3,7 C 95 % 995 hPa 0,0 l/m 13,0 km/h (3 Bft) S-SW45 210 0 min 9,8 klux 0,00 min -4,4 C -10,0 C
19.12.2010 11:32 -3,4 C 95 % 994 hPa 0,0 l/m 8,9 km/h (2 Bft) SW22.5 215 0 min 10,9 klux 0,00 min -4,1 C -6,2 C
19.12.2010 11:47 -3,4 C 95 % 994 hPa 0,0 l/m 10,1 km/h (2 Bft) S-SW22.5 210 0 min 9,5 klux 0,00 min -4,1 C -7,3 C
19.12.2010 12:00 -3,3 C 95 % 994 hPa 0,0 l/m 15,3 km/h (3 Bft) SW45 225 0 min 8,85 klux 0,00 min -4,0 C -11,2 C
19.12.2010 12:15 -3,3 C 95 % 993 hPa 0,0 l/m 17,0 km/h (3 Bft) S22.5 175 0 min 9,3 klux 0,00 min -4,0 C -12,2 C
19.12.2010 12:29 -3,3 C 95 % 993 hPa 0,0 l/m 13,0 km/h (3 Bft) S22.5 170 0 min 9,2 klux 0,00 min -4,0 C -9,6 C
19.12.2010 12:45 -3,2 C 95 % 993 hPa 0,0 l/m 10,5 km/h (2 Bft) S-SO22.5 165 0 min 7,09 klux 0,00 min -3,9 C -7,4 C
19.12.2010 13:00 -3,3 C 95 % 993 hPa 0,0 l/m 9,0 km/h (2 Bft) S22.5 175 0 min 7,44 klux 0,00 min -4,0 C -6,1 C
19.12.2010 13:15 -3,1 C 96 % 992 hPa 0,0 l/m 3,5 km/h (1 Bft) S-SO 155 0 min 7,01 klux 0,00 min -3,6 C -3,1 C
19.12.2010 13:30 -3,0 C 96 % 992 hPa 0,0 l/m 0,0 km/h (0 Bft) S-SO 155 0 min 6,46 klux 0,00 min -3,5 C -3,0 C
19.12.2010 13:45 -2,9 C 96 % 992 hPa 0,0 l/m 4,0 km/h (1 Bft) NO 55 0 min 6,67 klux 0,00 min -3,4 C -2,9 C
19.12.2010 13:59 -2,8 C 96 % 991 hPa 0,0 l/m 0,0 km/h (0 Bft) NO 55 0 min 7,49 klux 0,00 min -3,3 C -2,8 C
19.12.2010 14:14 -2,7 C 95 % 991 hPa 0,0 l/m 4,8 km/h (1 Bft) SO22.5 145 0 min 8,44 klux 0,00 min -3,4 C -2,7 C
19.12.2010 14:30 -2,9 C 95 % 990 hPa 0,0 l/m 11,2 km/h (2 Bft) SO22.5 140 0 min 5,73 klux 0,00 min -3,6 C -7,7 C
19.12.2010 14:45 -3,0 C 95 % 990 hPa 0,0 l/m 14,2 km/h (3 Bft) SO22.5 125 0 min 3,72 klux 0,00 min -3,7 C -10,1 C
19.12.2010 15:00 -3,2 C 96 % 990 hPa 0,0 l/m 16,6 km/h (3 Bft) SO45 125 0 min 2,91 klux 0,00 min -3,7 C -11,9 C
19.12.2010 15:15 -3,4 C 96 % 989 hPa 0,0 l/m 16,7 km/h (3 Bft) O-SO45 115 0 min 1,64 klux 0,00 min -3,9 C -12,2 C
19.12.2010 15:30 -3,3 C 96 % 989 hPa 0,0 l/m 8,1 km/h (2 Bft) O45 90 0 min 1,62 klux 0,00 min -3,8 C -5,2 C
19.12.2010 15:44 -3,3 C 96 % 989 hPa 0,0 l/m 0,7 km/h (0 Bft) NO22.5 55 0 min 1,33 klux 0,00 min -3,8 C -3,3 C
19.12.2010 16:00 -3,4 C 96 % 989 hPa 0,0 l/m 10,8 km/h (2 Bft) O-NO 75 0 min 1,18 klux 0,00 min -3,9 C -7,9 C
19.12.2010 16:15 -3,4 C 97 % 989 hPa 0,0 l/m 0,3 km/h (0 Bft) O-NO 75 0 min 529 lux 0,00 min -3,8 C -3,4 C
19.12.2010 16:30 -3,4 C 97 % 988 hPa 0,0 l/m 0,4 km/h (0 Bft) O-NO 75 0 min 297 lux 0,00 min -3,8 C -3,4 C
19.12.2010 16:45 -3,4 C 97 % 988 hPa 0,0 l/m 4,5 km/h (1 Bft) O-NO 75 0 min 197 lux 0,00 min -3,8 C -3,4 C
19.12.2010 17:00 -3,3 C 97 % 988 hPa 6,9 l/m 7,9 km/h (2 Bft) SO22.5 135 0 min 52 lux 15,00 min -3,7 C -5,0 C
19.12.2010 17:15 -3,1 C 97 % 987 hPa 0,0 l/m 10,6 km/h (2 Bft) S-SO22.5 155 0 min 15 lux 0,00 min -3,5 C -7,4 C
19.12.2010 17:29 -3,0 C 98 % 987 hPa 0,0 l/m 6,0 km/h (2 Bft) S22.5 170 0 min 0 lux 0,00 min -3,3 C -3,0 C
19.12.2010 17:45 -2,8 C 98 % 987 hPa 0,0 l/m 13,4 km/h (3 Bft) S-SO22.5 165 0 min 0 lux 0,00 min -3,1 C -9,3 C
19.12.2010 18:00 -2,6 C 98 % 987 hPa 0,0 l/m 14,1 km/h (3 Bft) S-SO22.5 160 0 min 0 lux 0,00 min -2,9 C -9,5 C
19.12.2010 18:15 -2,3 C 98 % 987 hPa 0,6 l/m 18,7 km/h (3 Bft) S22.5 180 0 min 0 lux 15,00 min -2,6 C -11,9 C
19.12.2010 18:30 -2,0 C 99 % 986 hPa 0,0 l/m 21,3 km/h (4 Bft) S-SW45 195 0 min 0 lux 0,00 min -2,1 C -12,8 C
19.12.2010 18:45 -1,4 C 99 % 986 hPa 0,0 l/m 24,6 km/h (4 Bft) S45 190 0 min 0 lux 0,00 min -1,5 C -13,5 C
19.12.2010 18:59 -1,3 C 99 % 986 hPa 0,3 l/m 24,5 km/h (4 Bft) S-SW45 210 0 min 0 lux 14,00 min -1,4 C -13,3 C
19.12.2010 19:14 -1,1 C 99 % 986 hPa 0,0 l/m 29,1 km/h (5 Bft) S-SW45 205 0 min 0 lux 0,00 min -1,2 C -14,7 C
19.12.2010 19:30 -0,9 C 99 % 986 hPa 0,6 l/m 26,5 km/h (4 Bft) SW45 215 0 min 0 lux 16,00 min -1,0 C -13,5 C
19.12.2010 19:45 -0,6 C 99 % 986 hPa 0,9 l/m 29,6 km/h (5 Bft) SW45 225 0 min 0 lux 15,00 min -0,7 C -14,1 C
19.12.2010 20:00 -0,5 C 99 % 986 hPa 0,3 l/m 26,9 km/h (4 Bft) SW22.5 215 0 min 0 lux 15,00 min -0,6 C -13,1 C
19.12.2010 20:15 -0,3 C 99 % 986 hPa 0,3 l/m 38,6 km/h (5 Bft) S-SW22.5 205 0 min 0 lux 15,00 min -0,4 C -16,1 C
19.12.2010 20:30 0,0 C 99 % 986 hPa 0,0 l/m 39,2 km/h (6 Bft) SW22.5 215 0 min 0 lux 0,00 min -0,1 C -15,8 C
19.12.2010 20:44 0,2 C 99 % 986 hPa 0,0 l/m 38,8 km/h (5 Bft) SW67.5 230 0 min 0 lux 0,00 min 0,1 C -15,4 C
19.12.2010 21:00 0,3 C 99 % 986 hPa 0,0 l/m 36,4 km/h (5 Bft) S-SW45 210 0 min 0 lux 0,00 min 0,2 C -14,7 C
19.12.2010 21:15 0,4 C 99 % 986 hPa 0,0 l/m 44,1 km/h (6 Bft) SW45 220 0 min 0 lux 0,00 min 0,3 C -16,1 C
19.12.2010 21:30 0,4 C 99 % 986 hPa 0,0 l/m 45,7 km/h (6 Bft) SW67.5 220 0 min 0 lux 0,00 min 0,3 C -16,4 C
19.12.2010 21:45 0,5 C 99 % 986 hPa 0,0 l/m 47,1 km/h (6 Bft) SW67.5 225 0 min 0 lux 0,00 min 0,4 C -16,5 C
19.12.2010 22:00 0,6 C 99 % 986 hPa 0,0 l/m 40,5 km/h (6 Bft) SW45 235 0 min 0 lux 0,00 min 0,5 C -15,1 C
19.12.2010 22:14 0,6 C 99 % 986 hPa 0,0 l/m 47,3 km/h (6 Bft) SW45 235 0 min 0 lux 0,00 min 0,5 C -16,3 C
19.12.2010 22:29 0,4 C 98 % 986 hPa 0,0 l/m 35,8 km/h (5 Bft) SW45 220 0 min 0 lux 0,00 min 0,1 C -14,4 C
19.12.2010 22:45 0,2 C 99 % 986 hPa 0,3 l/m 33,1 km/h (5 Bft) SW45 230 0 min 0 lux 16,00 min 0,1 C -14,0 C
19.12.2010 23:00 0,3 C 99 % 986 hPa 0,3 l/m 43,5 km/h (6 Bft) SW67.5 235 0 min 0 lux 15,00 min 0,2 C -16,2 C
19.12.2010 23:15 0,4 C 99 % 986 hPa 0,0 l/m 44,9 km/h (6 Bft) W-SW45 240 0 min 0 lux 0,00 min 0,3 C -16,3 C
19.12.2010 23:30 0,2 C 99 % 986 hPa 0,3 l/m 36,9 km/h (5 Bft) W67.5 270 0 min 0 lux 15,00 min 0,1 C -15,0 C
19.12.2010 23:45 -0,3 C 98 % 987 hPa 0,3 l/m 27,8 km/h (4 Bft) W45 275 0 min 0 lux 15,00 min -0,6 C -13,1 C
19.12.2010 23:53 -0,6 C 98 % 988 hPa 0,0 l/m 20,8 km/h (4 Bft) W45 270 0 min 0 lux 0,00 min -0,9 C -10,8 C
_ Min-Zeit 00:02 10:32 18:30 - 13:30 - - - - - 00:02 06:46
Minimum _ -5,3 C 95 % 986 hPa - 0,0 km/h (0 Bft) - - - - - -5,8 C -19,5 C
_ Max-Zeit 22:00 18:30 10:47 17:00 22:14 - - 00:02 11:32 19:30 22:00 14:14
Maximum _ 0,6 C 99 % 995 hPa 6,9 l/m 47,3 km/h
SW (6 Bft)
- - 0 min 10,9 klux 16,00 min 0,5 C -2,7 C
Durchschnitt _ -3,2 C 97 % 991 hPa #12,3 l/m 19,9 km/h (4 Bft) SW - #0 min. 1,89 klux #3:01 h -3,6 C -12,5 C